createdAt,value
2022-08-10T00:00:17.271Z,13.38
2022-08-10T00:01:17.328Z,13.38
2022-08-10T00:02:17.288Z,13.37
2022-08-10T00:03:17.230Z,13.37
2022-08-10T00:04:21.057Z,13.33
2022-08-10T00:05:17.200Z,13.30
2022-08-10T00:06:17.180Z,13.27
2022-08-10T00:07:17.203Z,13.25
2022-08-10T00:08:23.712Z,13.23
2022-08-10T00:09:18.138Z,13.18
2022-08-10T00:10:17.148Z,13.15
2022-08-10T00:11:17.148Z,13.12
2022-08-10T00:12:17.162Z,13.11
2022-08-10T00:13:17.112Z,13.09
2022-08-10T00:14:17.091Z,13.08
2022-08-10T00:15:52.373Z,13.04
2022-08-10T00:16:18.060Z,13.01
2022-08-10T00:17:17.114Z,13.00
2022-08-10T00:18:31.585Z,13.00
2022-08-10T00:19:18.256Z,13.01
2022-08-10T00:20:17.020Z,13.03
2022-08-10T00:21:17.023Z,13.01
2022-08-10T00:22:17.205Z,13.01
2022-08-10T00:23:16.983Z,13.00
2022-08-10T00:24:16.974Z,12.98
2022-08-10T00:25:16.965Z,12.98
2022-08-10T00:26:16.958Z,13.00
2022-08-10T00:27:52.984Z,13.00
2022-08-10T00:28:17.954Z,13.00
2022-08-10T00:29:16.926Z,13.03
2022-08-10T00:30:16.919Z,13.03
2022-08-10T00:31:16.899Z,13.03
2022-08-10T00:32:16.926Z,13.01
2022-08-10T00:33:16.875Z,12.97
2022-08-10T00:34:16.858Z,12.97
2022-08-10T00:35:16.862Z,12.98
2022-08-10T00:36:16.826Z,12.95
2022-08-10T00:37:16.876Z,12.91
2022-08-10T00:38:16.805Z,12.87
2022-08-10T00:39:16.858Z,12.85
2022-08-10T00:40:16.816Z,12.82
2022-08-10T00:41:16.782Z,12.80
2022-08-10T00:42:16.817Z,12.76
2022-08-10T00:43:23.380Z,12.73
2022-08-10T00:44:17.766Z,12.72
2022-08-10T00:45:16.759Z,12.75
2022-08-10T00:46:16.735Z,12.72
2022-08-10T00:47:36.452Z,12.72
2022-08-10T00:48:17.702Z,12.68
2022-08-10T00:49:16.694Z,12.67
2022-08-10T00:50:16.690Z,12.64
2022-08-10T00:51:16.664Z,12.62
2022-08-10T00:52:16.693Z,12.60
2022-08-10T00:53:16.648Z,12.58
2022-08-10T00:54:24.343Z,12.54
2022-08-10T00:55:17.633Z,12.50
2022-08-10T00:57:12.181Z,12.47
2022-08-10T00:57:18.739Z,12.45
2022-08-10T00:58:16.577Z,12.40
2022-08-10T00:59:16.585Z,12.36
2022-08-10T01:00:16.568Z,12.35
2022-08-10T01:02:09.205Z,12.36
2022-08-10T01:02:17.670Z,12.36
2022-08-10T01:03:16.550Z,12.42
2022-08-10T01:04:57.228Z,12.46
2022-08-10T01:05:17.492Z,12.50
2022-08-10T01:06:16.495Z,12.53
2022-08-10T01:07:16.530Z,12.53
2022-08-10T01:08:16.496Z,12.54
2022-08-10T01:09:16.461Z,12.55
2022-08-10T01:10:16.466Z,12.50
2022-08-10T01:12:39.700Z,12.45
2022-08-10T01:12:40.008Z,12.42
2022-08-10T01:13:17.417Z,12.36
2022-08-10T01:14:16.411Z,12.32
2022-08-10T01:15:16.436Z,12.28
2022-08-10T01:16:16.413Z,12.22
2022-08-10T01:17:16.403Z,12.17
2022-08-10T01:18:16.365Z,12.13
2022-08-10T01:19:16.338Z,12.09
2022-08-10T01:20:30.566Z,12.04
2022-08-10T01:21:17.329Z,12.03
2022-08-10T01:22:16.356Z,11.97
2022-08-10T01:23:16.301Z,11.91
2022-08-10T01:24:16.286Z,11.88
2022-08-10T01:25:16.292Z,11.86
2022-08-10T01:26:30.611Z,11.78
2022-08-10T01:27:17.298Z,11.75
2022-08-10T01:28:16.241Z,11.73
2022-08-10T01:29:16.234Z,11.70
2022-08-10T01:30:16.223Z,11.68
2022-08-10T01:31:16.204Z,11.66
2022-08-10T01:32:16.249Z,11.65
2022-08-10T01:33:16.190Z,11.63
2022-08-10T01:34:16.161Z,11.62
2022-08-10T01:35:16.142Z,11.63
2022-08-10T01:36:16.129Z,11.62
2022-08-10T01:37:16.176Z,11.60
2022-08-10T01:38:16.125Z,11.60
2022-08-10T01:39:16.128Z,11.54
2022-08-10T01:40:16.810Z,11.55
2022-08-10T01:41:16.090Z,11.55
2022-08-10T01:42:16.120Z,11.57
2022-08-10T01:43:16.054Z,11.57
2022-08-10T01:44:20.357Z,11.62
2022-08-10T01:45:16.028Z,11.68
2022-08-10T01:46:16.022Z,11.73
2022-08-10T01:47:18.025Z,11.73
2022-08-10T01:48:17.016Z,11.75
2022-08-10T01:49:15.984Z,11.72
2022-08-10T01:50:15.974Z,11.66
2022-08-10T01:51:15.970Z,11.65
2022-08-10T01:52:18.294Z,11.63
2022-08-10T01:53:15.944Z,11.62
2022-08-10T01:54:15.951Z,11.63
2022-08-10T01:55:15.929Z,11.60
2022-08-10T01:56:15.902Z,11.60
2022-08-10T01:57:15.948Z,11.57
2022-08-10T01:58:15.888Z,11.55
2022-08-10T01:59:15.869Z,11.57
2022-08-10T02:00:15.887Z,11.55
2022-08-10T02:01:16.036Z,11.50
2022-08-10T02:02:15.846Z,11.48
2022-08-10T02:03:15.899Z,11.44
2022-08-10T02:04:15.815Z,11.41
2022-08-10T02:05:15.794Z,11.44
2022-08-10T02:06:15.795Z,11.45
2022-08-10T02:07:15.771Z,11.48
2022-08-10T02:08:15.824Z,11.50
2022-08-10T02:09:15.760Z,11.48
2022-08-10T02:10:15.751Z,11.47
2022-08-10T02:11:15.730Z,11.44
2022-08-10T02:12:15.734Z,11.44
2022-08-10T02:13:15.752Z,11.41
2022-08-10T02:14:15.724Z,11.36
2022-08-10T02:15:15.684Z,11.36
2022-08-10T02:16:15.681Z,11.32
2022-08-10T02:17:57.071Z,11.27
2022-08-10T02:18:16.695Z,11.25
2022-08-10T02:19:15.624Z,11.30
2022-08-10T02:20:15.628Z,11.27
2022-08-10T02:21:15.621Z,11.23
2022-08-10T02:22:38.058Z,11.22
2022-08-10T02:23:16.646Z,11.26
2022-08-10T02:24:15.594Z,11.27
2022-08-10T02:25:41.001Z,11.29
2022-08-10T02:26:16.574Z,11.29
2022-08-10T02:27:15.567Z,11.26
2022-08-10T02:28:29.692Z,11.27
2022-08-10T02:29:16.575Z,11.27
2022-08-10T02:30:15.520Z,11.25
2022-08-10T02:31:15.514Z,11.23
2022-08-10T02:32:33.006Z,11.19
2022-08-10T02:33:17.163Z,11.18
2022-08-10T02:34:15.479Z,11.17
2022-08-10T02:35:21.883Z,11.17
2022-08-10T02:36:16.469Z,11.17
2022-08-10T02:37:15.434Z,11.15
2022-08-10T02:38:15.494Z,11.15
2022-08-10T02:39:15.444Z,11.12
2022-08-10T02:42:18.214Z,11.07
2022-08-10T02:45:12.178Z,11.04
2022-08-10T02:45:14.003Z,11.10
2022-08-10T02:45:22.329Z,11.04
2022-08-10T02:45:22.444Z,11.05
2022-08-10T02:45:29.610Z,11.07
2022-08-10T02:46:18.213Z,11.07
2022-08-10T02:47:15.357Z,11.08
2022-08-10T02:48:15.354Z,11.10
2022-08-10T02:49:15.318Z,11.11
2022-08-10T02:50:15.296Z,11.15
2022-08-10T02:51:15.273Z,11.17
2022-08-10T02:52:15.280Z,11.15
2022-08-10T02:53:54.506Z,11.17
2022-08-10T02:54:16.242Z,11.19
2022-08-10T02:55:17.984Z,11.22
2022-08-10T02:56:15.224Z,11.22
2022-08-10T02:57:15.225Z,11.22
2022-08-10T02:58:18.381Z,11.15
2022-08-10T02:59:17.391Z,11.11
2022-08-10T03:00:15.183Z,11.10
2022-08-10T03:01:15.231Z,11.08
2022-08-10T03:02:15.146Z,11.04
2022-08-10T03:03:15.211Z,11.00
2022-08-10T03:04:15.132Z,10.97
2022-08-10T03:05:15.127Z,10.96
2022-08-10T03:06:15.090Z,10.97
2022-08-10T03:07:15.095Z,10.99
2022-08-10T03:08:15.140Z,11.02
2022-08-10T03:09:15.338Z,10.97
2022-08-10T03:10:15.079Z,10.97
2022-08-10T03:11:15.049Z,10.97
2022-08-10T03:12:35.497Z,10.97
2022-08-10T03:13:16.088Z,10.97
2022-08-10T03:14:15.019Z,10.97
2022-08-10T03:15:15.506Z,10.97
2022-08-10T03:16:14.986Z,10.97
2022-08-10T03:17:14.989Z,10.96
2022-08-10T03:18:15.020Z,10.90
2022-08-10T03:20:35.157Z,10.87
2022-08-10T03:20:38.244Z,10.86
2022-08-10T03:21:15.939Z,10.86
2022-08-10T03:22:14.921Z,10.90
2022-08-10T03:23:14.963Z,10.96
2022-08-10T03:24:30.070Z,10.99
2022-08-10T03:25:15.891Z,10.96
2022-08-10T03:26:17.550Z,10.94
2022-08-10T03:27:15.877Z,10.93
2022-08-10T03:28:18.176Z,10.92
2022-08-10T03:29:15.845Z,10.92
2022-08-10T03:30:29.627Z,10.94
2022-08-10T03:31:15.828Z,10.93
2022-08-10T03:32:14.812Z,10.94
2022-08-10T03:33:14.884Z,10.96
2022-08-10T03:34:22.287Z,10.92
2022-08-10T03:35:15.811Z,10.92
2022-08-10T03:36:41.332Z,10.93
2022-08-10T03:37:15.731Z,10.93
2022-08-10T03:38:14.777Z,10.90
2022-08-10T03:39:14.744Z,10.82
2022-08-10T03:40:14.723Z,10.78
2022-08-10T03:41:16.182Z,10.72
2022-08-10T03:42:14.677Z,10.75
2022-08-10T03:43:14.717Z,10.78
2022-08-10T03:44:14.687Z,10.79
2022-08-10T03:45:14.667Z,10.82
2022-08-10T03:46:14.644Z,10.84
2022-08-10T03:47:16.156Z,10.84
2022-08-10T03:48:14.667Z,10.82
2022-08-10T03:49:14.610Z,10.81
2022-08-10T03:50:27.906Z,10.79
2022-08-10T03:51:15.599Z,10.81
2022-08-10T03:52:14.572Z,10.82
2022-08-10T03:53:25.344Z,10.82
2022-08-10T03:54:15.545Z,10.78
2022-08-10T03:56:27.315Z,10.78
2022-08-10T03:56:30.055Z,10.81
2022-08-10T03:57:15.515Z,10.82
2022-08-10T03:58:14.553Z,10.82
2022-08-10T03:59:14.492Z,10.87
2022-08-10T04:00:14.483Z,10.87
2022-08-10T04:01:14.562Z,10.93
2022-08-10T04:02:45.114Z,10.96
2022-08-10T04:03:15.492Z,10.99
2022-08-10T04:04:18.938Z,10.97
2022-08-10T04:05:15.417Z,10.96
2022-08-10T04:06:14.408Z,11.00
2022-08-10T04:07:14.403Z,11.00
2022-08-10T04:08:14.426Z,10.97
2022-08-10T04:09:14.380Z,10.94
2022-08-10T04:10:14.354Z,10.97
2022-08-10T04:11:14.343Z,11.00
2022-08-10T04:12:14.356Z,11.07
2022-08-10T04:13:14.334Z,11.08
2022-08-10T04:14:38.761Z,11.11
2022-08-10T04:15:15.307Z,11.14
2022-08-10T04:16:14.293Z,11.18
2022-08-10T04:17:14.359Z,11.23
2022-08-10T04:18:14.273Z,11.30
2022-08-10T04:19:14.325Z,11.37
2022-08-10T04:20:14.242Z,11.48
2022-08-10T04:21:14.233Z,11.59
2022-08-10T04:22:14.337Z,11.68
2022-08-10T04:23:14.223Z,11.81
2022-08-10T04:24:26.238Z,12.00
2022-08-10T04:25:15.192Z,12.22
2022-08-10T04:26:14.189Z,12.40
2022-08-10T04:27:14.195Z,12.50
2022-08-10T04:28:14.145Z,12.61
2022-08-10T04:29:14.204Z,12.72
2022-08-10T04:30:14.135Z,12.79
2022-08-10T04:31:14.126Z,12.83
2022-08-10T04:32:14.123Z,12.93
2022-08-10T04:33:14.109Z,13.04
2022-08-10T04:34:14.117Z,13.18
2022-08-10T04:35:14.073Z,13.33
2022-08-10T04:36:14.059Z,13.67
2022-08-10T04:37:14.051Z,13.96
2022-08-10T04:38:14.052Z,14.17
2022-08-10T04:39:14.167Z,14.25
2022-08-10T04:40:28.518Z,14.32
2022-08-10T04:41:15.017Z,14.29
2022-08-10T04:42:13.994Z,14.28
2022-08-10T04:43:13.985Z,14.28
2022-08-10T04:44:14.034Z,14.29
2022-08-10T04:45:13.972Z,14.30
2022-08-10T04:46:14.102Z,14.32
2022-08-10T04:47:16.877Z,14.33
2022-08-10T04:48:42.717Z,14.40
2022-08-10T04:49:55.096Z,14.63
2022-08-10T04:50:14.901Z,14.89
2022-08-10T04:51:18.091Z,15.27
2022-08-10T04:52:13.876Z,15.54
2022-08-10T04:53:13.876Z,15.80
2022-08-10T04:54:15.920Z,16.15
2022-08-10T04:55:13.856Z,16.41
2022-08-10T04:56:13.821Z,16.68
2022-08-10T04:57:13.843Z,16.91
2022-08-10T04:58:13.820Z,17.04
2022-08-10T04:59:13.860Z,17.02
2022-08-10T05:00:17.971Z,16.99
2022-08-10T05:01:14.843Z,17.15
2022-08-10T05:02:30.668Z,17.27
2022-08-10T05:03:14.760Z,17.30
2022-08-10T05:04:34.658Z,17.30
2022-08-10T05:05:14.734Z,17.42
2022-08-10T05:06:13.708Z,17.54
2022-08-10T05:07:16.947Z,17.82
2022-08-10T05:08:13.679Z,18.10
2022-08-10T05:09:13.743Z,18.26
2022-08-10T05:10:13.734Z,18.41
2022-08-10T05:11:24.202Z,18.60
2022-08-10T05:12:14.654Z,18.78
2022-08-10T05:13:13.634Z,18.73
2022-08-10T05:14:13.666Z,18.38
2022-08-10T05:15:13.619Z,18.15
2022-08-10T05:16:20.559Z,17.89
2022-08-10T05:17:14.600Z,17.60
2022-08-10T05:18:13.611Z,17.44
2022-08-10T05:19:13.626Z,17.36
2022-08-10T05:20:13.550Z,17.26
2022-08-10T05:22:02.462Z,17.24
2022-08-10T05:22:14.539Z,17.14
2022-08-10T05:23:13.523Z,17.15
2022-08-10T05:24:13.553Z,17.57
2022-08-10T05:25:13.518Z,18.18
2022-08-10T05:26:13.487Z,18.62
2022-08-10T05:27:13.527Z,19.07
2022-08-10T05:28:13.478Z,19.39
2022-08-10T05:29:13.514Z,19.70
2022-08-10T05:30:13.473Z,19.92
2022-08-10T05:31:14.657Z,20.10
2022-08-10T05:32:14.428Z,20.13
2022-08-10T05:33:13.400Z,20.14
2022-08-10T05:34:20.354Z,20.25
2022-08-10T05:35:14.393Z,20.39
2022-08-10T05:36:13.383Z,20.55
2022-08-10T05:38:09.993Z,20.59
2022-08-10T05:38:15.069Z,20.43
2022-08-10T05:39:13.424Z,20.09
2022-08-10T05:40:13.352Z,20.16
2022-08-10T05:41:13.335Z,20.10
2022-08-10T05:42:13.317Z,20.37
2022-08-10T05:43:13.322Z,20.29
2022-08-10T05:44:13.317Z,20.36
2022-08-10T05:45:13.294Z,20.65
2022-08-10T05:46:17.476Z,20.63
2022-08-10T05:47:14.267Z,20.84
2022-08-10T05:48:54.752Z,20.80
2022-08-10T05:49:14.309Z,20.80
2022-08-10T05:50:13.227Z,20.80
2022-08-10T05:51:13.222Z,20.74
2022-08-10T05:52:13.188Z,20.85
2022-08-10T05:54:02.722Z,21.17
2022-08-10T05:54:14.191Z,21.35
2022-08-10T05:55:13.232Z,21.69
2022-08-10T05:56:13.156Z,21.83
2022-08-10T05:57:13.155Z,21.83
2022-08-10T05:58:13.135Z,21.96
2022-08-10T05:59:13.105Z,22.08
2022-08-10T06:00:37.164Z,21.93
2022-08-10T06:01:14.196Z,21.85
2022-08-10T06:02:32.958Z,21.85
2022-08-10T06:03:14.061Z,22.14
2022-08-10T06:04:13.036Z,22.15
2022-08-10T06:05:13.103Z,22.07
2022-08-10T06:06:13.033Z,21.83
2022-08-10T06:07:13.066Z,22.02
2022-08-10T06:08:13.016Z,22.18
2022-08-10T06:09:13.015Z,22.50
2022-08-10T06:10:13.042Z,22.48
2022-08-10T06:12:26.637Z,22.44
2022-08-10T06:12:28.160Z,22.44
2022-08-10T06:13:30.069Z,22.35
2022-08-10T06:14:16.543Z,22.57
2022-08-10T06:15:21.537Z,22.87
2022-08-10T06:16:13.921Z,23.03
2022-08-10T06:17:12.916Z,23.08
2022-08-10T06:18:12.886Z,23.13
2022-08-10T06:19:14.695Z,23.24
2022-08-10T06:20:12.887Z,22.96
2022-08-10T06:21:12.869Z,23.24
2022-08-10T06:22:12.856Z,23.41
2022-08-10T06:23:12.871Z,23.54
2022-08-10T06:24:12.835Z,23.73
2022-08-10T06:25:51.144Z,23.83
2022-08-10T06:26:16.491Z,23.81
2022-08-10T06:27:13.792Z,23.86
2022-08-10T06:28:12.784Z,23.62
2022-08-10T06:29:12.760Z,23.46
2022-08-10T06:30:19.940Z,23.34
2022-08-10T06:31:13.732Z,23.28
2022-08-10T06:32:12.737Z,23.51
2022-08-10T06:33:12.725Z,23.58
2022-08-10T06:34:12.698Z,23.36
2022-08-10T06:35:12.747Z,23.20
2022-08-10T06:36:12.694Z,23.28
2022-08-10T06:37:12.693Z,23.51
2022-08-10T06:38:12.659Z,23.50
2022-08-10T06:39:32.461Z,23.40
2022-08-10T06:40:13.723Z,23.71
2022-08-10T06:41:14.717Z,23.81
2022-08-10T06:42:14.747Z,23.78
2022-08-10T06:43:12.595Z,24.01
2022-08-10T06:44:13.426Z,24.39
2022-08-10T06:45:12.655Z,24.73
2022-08-10T06:46:12.577Z,25.13
2022-08-10T06:47:12.568Z,25.51
2022-08-10T06:48:12.536Z,25.70
2022-08-10T06:49:12.539Z,25.90
2022-08-10T06:50:12.599Z,26.18
2022-08-10T06:51:12.527Z,26.41
2022-08-10T06:52:16.327Z,26.55
2022-08-10T06:53:13.479Z,26.74
2022-08-10T06:54:12.491Z,27.03
2022-08-10T06:55:12.544Z,26.99
2022-08-10T06:56:12.490Z,26.81
2022-08-10T06:57:19.590Z,26.48
2022-08-10T06:58:13.439Z,26.74
2022-08-10T06:59:13.297Z,26.66
2022-08-10T07:00:17.121Z,26.38
2022-08-10T07:01:13.436Z,25.88
2022-08-10T07:02:12.410Z,26.21
2022-08-10T07:03:12.387Z,26.36
2022-08-10T07:04:12.411Z,26.53
2022-08-10T07:05:12.407Z,26.29
2022-08-10T07:06:12.339Z,25.60
2022-08-10T07:07:12.327Z,25.85
2022-08-10T07:08:12.339Z,25.55
2022-08-10T07:09:12.350Z,25.72
2022-08-10T07:10:12.334Z,25.99
2022-08-10T07:11:12.312Z,26.45
2022-08-10T07:12:12.299Z,26.85
2022-08-10T07:13:12.289Z,27.15
2022-08-10T07:14:16.843Z,27.47
2022-08-10T07:15:13.320Z,27.55
2022-08-10T07:16:12.249Z,27.03
2022-08-10T07:17:15.836Z,26.60
2022-08-10T07:18:12.260Z,26.47
2022-08-10T07:19:12.225Z,27.03
2022-08-10T07:20:12.258Z,27.49
2022-08-10T07:21:12.205Z,27.70
2022-08-10T07:23:50.807Z,28.01
2022-08-10T07:23:57.273Z,28.35
2022-08-10T07:24:13.154Z,27.74
2022-08-10T07:25:12.214Z,27.85
2022-08-10T07:26:12.125Z,27.48
2022-08-10T07:27:12.103Z,27.55
2022-08-10T07:28:12.110Z,27.70
2022-08-10T07:29:53.092Z,27.85
2022-08-10T07:30:13.129Z,28.37
2022-08-10T07:31:29.576Z,28.23
2022-08-10T07:32:13.096Z,28.51
2022-08-10T07:33:12.053Z,28.97
2022-08-10T07:34:12.030Z,28.98
2022-08-10T07:35:13.057Z,28.85
2022-08-10T07:36:12.083Z,28.63
2022-08-10T07:37:12.010Z,28.45
2022-08-10T07:38:12.009Z,28.70
2022-08-10T07:39:12.028Z,28.47
2022-08-10T07:40:12.060Z,28.05
2022-08-10T07:41:11.979Z,27.65
2022-08-10T07:42:11.968Z,27.87
2022-08-10T07:43:11.949Z,27.86
2022-08-10T07:44:11.926Z,28.12
2022-08-10T07:45:11.971Z,28.38
2022-08-10T07:46:11.901Z,28.41
2022-08-10T07:47:11.880Z,28.86
2022-08-10T07:48:11.914Z,29.45
2022-08-10T07:49:15.245Z,29.71
2022-08-10T07:50:12.938Z,30.09
2022-08-10T07:51:11.870Z,29.79
2022-08-10T07:52:11.859Z,30.03
2022-08-10T07:53:11.830Z,29.31
2022-08-10T07:54:11.843Z,29.38
2022-08-10T07:55:11.821Z,29.95
2022-08-10T07:56:26.301Z,30.72
2022-08-10T07:57:12.826Z,30.78
2022-08-10T07:58:12.775Z,31.05
2022-08-10T07:59:11.770Z,30.80
2022-08-10T08:00:11.780Z,30.90
2022-08-10T08:01:11.797Z,30.18
2022-08-10T08:02:11.811Z,30.18
2022-08-10T08:03:11.712Z,30.00
2022-08-10T08:04:12.181Z,29.71
2022-08-10T08:05:11.793Z,29.66
2022-08-10T08:06:12.711Z,29.93
2022-08-10T08:07:11.663Z,29.73
2022-08-10T08:08:11.707Z,29.81
2022-08-10T08:09:11.646Z,30.24
2022-08-10T08:10:11.674Z,30.02
2022-08-10T08:11:25.783Z,30.15
2022-08-10T08:12:12.645Z,30.55
2022-08-10T08:13:11.618Z,30.77
2022-08-10T08:14:11.633Z,30.91
2022-08-10T08:16:14.527Z,30.24
2022-08-10T08:16:17.879Z,30.47
2022-08-10T08:17:12.577Z,30.84
2022-08-10T08:18:11.552Z,30.57
2022-08-10T08:19:28.458Z,29.88
2022-08-10T08:20:12.540Z,29.90
2022-08-10T08:24:02.414Z,30.02
2022-08-10T08:24:09.523Z,30.97
2022-08-10T08:24:10.889Z,30.25
2022-08-10T08:24:31.871Z,30.75
2022-08-10T08:25:14.545Z,30.10
2022-08-10T08:26:11.533Z,29.93
2022-08-10T08:27:11.469Z,29.95
2022-08-10T08:28:11.499Z,30.50
2022-08-10T08:29:11.464Z,30.77
2022-08-10T08:30:11.423Z,31.09
2022-08-10T08:31:11.524Z,31.33
2022-08-10T08:32:11.416Z,31.59
2022-08-10T08:33:11.407Z,31.55
2022-08-10T08:34:12.393Z,31.87
2022-08-10T08:35:11.373Z,31.31
2022-08-10T08:36:11.401Z,31.36
2022-08-10T08:37:11.360Z,31.37
2022-08-10T08:38:34.468Z,31.17
2022-08-10T08:39:12.359Z,31.37
2022-08-10T08:40:11.338Z,31.80
2022-08-10T08:41:11.367Z,31.34
2022-08-10T08:42:11.310Z,31.74
2022-08-10T08:43:11.295Z,32.55
2022-08-10T08:44:11.278Z,32.97
2022-08-10T08:45:11.253Z,33.39
2022-08-10T08:46:11.322Z,33.76
2022-08-10T08:48:02.092Z,32.92
2022-08-10T08:48:12.226Z,32.83
2022-08-10T08:49:11.228Z,32.31
2022-08-10T08:50:11.200Z,32.21
2022-08-10T08:51:11.226Z,32.29
2022-08-10T08:52:18.233Z,32.34
2022-08-10T08:53:21.443Z,32.90
2022-08-10T08:54:12.154Z,32.97
2022-08-10T08:56:01.394Z,33.61
2022-08-10T08:56:12.217Z,34.21
2022-08-10T08:57:11.138Z,34.62
2022-08-10T08:58:11.149Z,34.57
2022-08-10T08:59:11.084Z,34.24
2022-08-10T09:00:13.385Z,33.98
2022-08-10T09:01:11.186Z,33.05
2022-08-10T09:02:11.162Z,32.56
2022-08-10T09:03:11.077Z,32.43
2022-08-10T09:04:20.044Z,32.38
2022-08-10T09:05:12.034Z,32.56
2022-08-10T09:06:11.101Z,32.64
2022-08-10T09:07:58.973Z,32.92
2022-08-10T09:08:12.038Z,33.22
2022-08-10T09:09:11.156Z,33.22
2022-08-10T09:10:11.015Z,32.56
2022-08-10T09:11:11.052Z,32.46
2022-08-10T09:12:10.995Z,32.27
2022-08-10T09:13:10.992Z,31.85
2022-08-10T09:14:10.983Z,31.81
2022-08-10T09:15:10.920Z,31.58
2022-08-10T09:16:12.007Z,31.66
2022-08-10T09:17:10.932Z,31.65
2022-08-10T09:18:10.936Z,31.87
2022-08-10T09:19:10.903Z,32.29
2022-08-10T09:20:11.879Z,32.83
2022-08-10T09:21:10.908Z,33.28
2022-08-10T09:22:17.316Z,32.90
2022-08-10T09:23:11.856Z,32.65
2022-08-10T09:24:10.853Z,32.93
2022-08-10T09:25:10.848Z,32.83
2022-08-10T09:26:10.879Z,33.34
2022-08-10T09:27:10.855Z,32.96
2022-08-10T09:28:10.822Z,32.82
2022-08-10T09:29:12.957Z,32.43
2022-08-10T09:30:10.786Z,32.43
2022-08-10T09:31:21.904Z,32.85
2022-08-10T09:36:13.511Z,33.74
2022-08-10T09:36:19.403Z,32.59
2022-08-10T09:36:22.448Z,33.37
2022-08-10T09:36:23.613Z,32.73
2022-08-10T09:36:26.173Z,32.93
2022-08-10T09:37:11.735Z,32.38
2022-08-10T09:38:10.702Z,32.75
2022-08-10T09:39:10.726Z,33.43
2022-08-10T09:40:59.813Z,33.73
2022-08-10T09:41:13.534Z,34.48
2022-08-10T09:42:14.975Z,35.05
2022-08-10T09:43:26.161Z,35.42
2022-08-10T09:44:11.663Z,35.26
2022-08-10T09:45:10.661Z,34.71
2022-08-10T09:46:11.843Z,34.80
2022-08-10T09:47:10.632Z,35.55
2022-08-10T09:48:10.625Z,35.82
2022-08-10T09:49:10.582Z,36.00
2022-08-10T09:50:11.584Z,35.80
2022-08-10T09:52:11.571Z,34.85
2022-08-10T09:53:10.568Z,35.22
2022-08-10T09:54:10.565Z,34.48
2022-08-10T09:55:10.570Z,34.35
2022-08-10T09:56:19.295Z,34.61
2022-08-10T09:57:43.203Z,34.78
2022-08-10T09:58:11.506Z,34.97
2022-08-10T09:59:29.203Z,34.35
2022-08-10T10:00:11.498Z,34.06
2022-08-10T10:01:10.513Z,33.46
2022-08-10T10:02:11.477Z,33.96
2022-08-10T10:03:10.524Z,33.80
2022-08-10T10:04:10.470Z,32.77
2022-08-10T10:05:10.453Z,33.42
2022-08-10T10:06:10.486Z,34.33
2022-08-10T10:07:10.474Z,34.99
2022-08-10T10:08:10.416Z,35.56
2022-08-10T10:09:10.910Z,35.92
2022-08-10T10:10:10.383Z,35.52
2022-08-10T10:11:10.411Z,35.34
2022-08-10T10:12:10.370Z,35.33
2022-08-10T10:13:10.377Z,35.11
2022-08-10T10:14:12.417Z,35.04
2022-08-10T10:15:10.316Z,33.52
2022-08-10T10:16:11.394Z,33.65
2022-08-10T10:17:10.331Z,34.16
2022-08-10T10:18:10.322Z,34.03
2022-08-10T10:19:10.304Z,33.74
2022-08-10T10:20:10.280Z,33.40
2022-08-10T10:21:10.280Z,33.43
2022-08-10T10:22:11.329Z,34.03
2022-08-10T10:23:10.264Z,34.86
2022-08-10T10:24:20.509Z,35.82
2022-08-10T10:25:19.893Z,36.27
2022-08-10T10:26:18.324Z,36.47
2022-08-10T10:27:16.636Z,36.30
2022-08-10T10:28:11.226Z,36.21
2022-08-10T10:29:37.699Z,36.04
2022-08-10T10:30:11.189Z,35.92
2022-08-10T10:31:16.599Z,35.14
2022-08-10T10:32:11.233Z,34.38
2022-08-10T10:33:13.138Z,34.14
2022-08-10T10:34:10.169Z,33.34
2022-08-10T10:35:10.169Z,33.40
2022-08-10T10:36:10.182Z,34.35
2022-08-10T10:37:10.169Z,34.90
2022-08-10T10:38:10.365Z,35.78
2022-08-10T10:39:10.192Z,36.67
2022-08-10T10:40:10.113Z,37.18
2022-08-10T10:41:10.130Z,37.68
2022-08-10T10:42:23.264Z,37.64
2022-08-10T10:43:11.064Z,36.98
2022-08-10T10:44:10.056Z,35.95
2022-08-10T10:45:10.092Z,35.66
2022-08-10T10:46:10.109Z,35.71
2022-08-10T10:47:10.077Z,35.63
2022-08-10T10:48:10.029Z,35.63
2022-08-10T10:49:11.019Z,36.05
2022-08-10T10:50:10.018Z,36.40
2022-08-10T10:51:10.841Z,36.59
2022-08-10T10:52:10.045Z,35.80
2022-08-10T10:53:09.987Z,35.80
2022-08-10T10:54:09.995Z,36.08
2022-08-10T10:55:09.959Z,36.12
2022-08-10T10:56:15.475Z,35.79
2022-08-10T10:57:10.985Z,36.43
2022-08-10T10:58:09.940Z,35.89
2022-08-10T10:59:16.027Z,36.02
2022-08-10T11:00:10.949Z,35.48
2022-08-10T11:01:09.941Z,34.50
2022-08-10T11:02:09.947Z,34.45
2022-08-10T11:03:09.897Z,34.71
2022-08-10T11:04:09.877Z,35.15
2022-08-10T11:05:09.919Z,35.70
2022-08-10T11:06:09.924Z,35.48
2022-08-10T11:07:09.905Z,34.75
2022-08-10T11:08:09.838Z,33.98
2022-08-10T11:09:09.853Z,34.57
2022-08-10T11:10:33.327Z,35.00
2022-08-10T11:11:14.343Z,35.36
2022-08-10T11:12:10.869Z,35.78
2022-08-10T11:14:25.777Z,36.00
2022-08-10T11:14:27.236Z,36.16
2022-08-10T11:15:10.775Z,36.74
2022-08-10T11:16:09.749Z,37.25
2022-08-10T11:17:09.783Z,36.99
2022-08-10T11:18:09.737Z,35.66
2022-08-10T11:19:09.741Z,36.17
2022-08-10T11:20:09.753Z,36.76
2022-08-10T11:21:09.757Z,36.98
2022-08-10T11:22:14.526Z,36.65
2022-08-10T11:23:10.721Z,36.80
2022-08-10T11:24:42.822Z,35.98
2022-08-10T11:25:10.680Z,35.95
2022-08-10T11:26:09.703Z,35.49
2022-08-10T11:27:09.730Z,35.45
2022-08-10T11:28:10.668Z,35.36
2022-08-10T11:29:09.693Z,35.11
2022-08-10T11:30:09.707Z,34.75
2022-08-10T11:31:09.650Z,34.73
2022-08-10T11:32:09.657Z,34.75
2022-08-10T11:33:10.624Z,34.62
2022-08-10T11:34:48.341Z,34.71
2022-08-10T11:35:12.678Z,34.60
2022-08-10T11:36:09.574Z,34.24
2022-08-10T11:37:09.621Z,33.71
2022-08-10T11:38:30.297Z,34.10
2022-08-10T11:39:14.409Z,34.24
2022-08-10T11:40:09.689Z,34.55
2022-08-10T11:42:05.819Z,35.07
2022-08-10T11:42:21.278Z,35.44
2022-08-10T11:43:10.523Z,35.22
2022-08-10T11:44:09.531Z,35.07
2022-08-10T11:45:09.497Z,34.96
2022-08-10T11:46:09.477Z,33.84
2022-08-10T11:47:09.514Z,32.96
2022-08-10T11:48:09.480Z,32.22
2022-08-10T11:49:09.510Z,33.43
2022-08-10T11:50:09.489Z,34.36
2022-08-10T11:51:09.449Z,33.86
2022-08-10T11:52:09.511Z,33.24
2022-08-10T11:53:09.441Z,32.41
2022-08-10T11:54:09.417Z,32.03
2022-08-10T11:55:09.411Z,32.52
2022-08-10T11:56:11.141Z,32.96
2022-08-10T11:57:09.444Z,33.39
2022-08-10T11:58:09.385Z,33.74
2022-08-10T11:59:17.147Z,33.61
2022-08-10T12:00:10.343Z,33.61
2022-08-10T12:01:09.353Z,33.89
2022-08-10T12:02:09.458Z,33.79
2022-08-10T12:03:09.415Z,33.98
2022-08-10T12:04:12.201Z,34.61
2022-08-10T12:05:09.301Z,35.24
2022-08-10T12:06:09.307Z,35.61
2022-08-10T12:10:04.573Z,35.86
2022-08-10T12:10:06.756Z,34.96
2022-08-10T12:10:10.242Z,34.86
2022-08-10T12:10:13.708Z,34.86
2022-08-10T12:11:09.258Z,34.71
2022-08-10T12:12:09.313Z,34.95
2022-08-10T12:13:09.254Z,34.32
2022-08-10T12:14:24.466Z,32.80
2022-08-10T12:15:10.209Z,31.55
2022-08-10T12:16:09.185Z,32.21
2022-08-10T12:17:09.244Z,32.56
2022-08-10T12:18:09.206Z,32.75
2022-08-10T12:19:09.168Z,33.42
2022-08-10T12:20:09.188Z,33.86
2022-08-10T12:21:09.157Z,33.40
2022-08-10T12:22:10.196Z,32.41
2022-08-10T12:23:09.155Z,31.51
2022-08-10T12:24:09.149Z,31.74
2022-08-10T12:25:09.118Z,31.40
2022-08-10T12:26:09.103Z,30.96
2022-08-10T12:27:13.136Z,30.48
2022-08-10T12:28:09.104Z,29.95
2022-08-10T12:29:09.080Z,29.65
2022-08-10T12:30:09.056Z,29.53
2022-08-10T12:31:09.072Z,29.39
2022-08-10T12:32:09.088Z,29.22
2022-08-10T12:33:09.052Z,29.22
2022-08-10T12:34:09.034Z,29.84
2022-08-10T12:35:09.014Z,31.12
2022-08-10T12:36:18.613Z,32.31
2022-08-10T12:37:10.053Z,33.34
2022-08-10T12:38:09.011Z,34.21
2022-08-10T12:39:09.003Z,34.77
2022-08-10T12:40:35.206Z,34.52
2022-08-10T12:41:09.937Z,34.52
2022-08-10T12:42:08.980Z,34.45
2022-08-10T12:43:13.167Z,34.47
2022-08-10T12:44:10.089Z,34.97
2022-08-10T12:45:08.950Z,34.93
2022-08-10T12:46:08.930Z,34.61
2022-08-10T12:47:14.089Z,34.61
2022-08-10T12:48:09.903Z,34.48
2022-08-10T12:49:08.879Z,34.27
2022-08-10T12:50:29.280Z,34.78
2022-08-10T12:51:09.850Z,34.86
2022-08-10T12:52:08.877Z,34.71
2022-08-10T12:53:08.831Z,34.10